Melbourn, United Kingdom
Current Conditions -  °F | °C
As of 3:20 PM on Saturday 25 Oct 2014 (Local Time) from EGSC Reporting Station
Few Clouds Few Clouds  
Wind Chill: 59°   Ceiling: Unl
Heat Index: 59°   Visibility: 6mi
Dew Point: 46°   Wind: 15mph
Humidity: 63%   Direction: 220°SW
Pressure: 30.03"   Gusts: NA
Location:  52.08°N, 0.02°E
Report Text: EGSC 251420Z 22013KT 180V240 9999 FEW035 15/08 Q1017
Loading
Personal Weather Stations






























Interactive Weather Map
Tropical Storm Tracking
New forecast layout! Learn more

10-Day Weather Forecast

Advertisements
Track Severe Weather on mobile